sensor_id;sensor_type;location;lat;lon;timestamp;P1;durP1;ratioP1;P2;durP2;ratioP2
84297;SDS011;74466;51.188;3.242;2024-02-21T00:00:20;10.63;;;3.47;;
84297;SDS011;74466;51.188;3.242;2024-02-21T00:02:46;8.68;;;3.10;;
84297;SDS011;74466;51.188;3.242;2024-02-21T00:05:12;11.52;;;3.22;;
84297;SDS011;74466;51.188;3.242;2024-02-21T00:07:37;10.00;;;3.20;;
84297;SDS011;74466;51.188;3.242;2024-02-21T00:10:03;11.65;;;3.92;;
84297;SDS011;74466;51.188;3.242;2024-02-21T00:12:29;10.55;;;3.60;;
84297;SDS011;74466;51.188;3.242;2024-02-21T00:14:55;11.68;;;3.67;;
84297;SDS011;74466;51.188;3.242;2024-02-21T00:17:21;10.00;;;3.50;;
84297;SDS011;74466;51.188;3.242;2024-02-21T00:19:47;12.80;;;3.80;;
84297;SDS011;74466;51.188;3.242;2024-02-21T00:22:12;9.25;;;3.75;;
84297;SDS011;74466;51.188;3.242;2024-02-21T00:24:38;11.90;;;3.80;;
84297;SDS011;74466;51.188;3.242;2024-02-21T00:27:04;11.10;;;3.95;;
84297;SDS011;74466;51.188;3.242;2024-02-21T00:29:30;10.32;;;3.50;;
84297;SDS011;74466;51.188;3.242;2024-02-21T00:31:55;10.77;;;4.00;;
84297;SDS011;74466;51.188;3.242;2024-02-21T00:34:21;11.10;;;4.00;;
84297;SDS011;74466;51.188;3.242;2024-02-21T00:36:46;14.75;;;4.15;;
84297;SDS011;74466;51.188;3.242;2024-02-21T00:39:12;10.57;;;4.20;;
84297;SDS011;74466;51.188;3.242;2024-02-21T00:41:38;10.38;;;3.92;;
84297;SDS011;74466;51.188;3.242;2024-02-21T00:44:04;12.25;;;3.85;;
84297;SDS011;74466;51.188;3.242;2024-02-21T00:46:31;12.70;;;4.10;;
84297;SDS011;74466;51.188;3.242;2024-02-21T00:48:56;12.20;;;4.07;;
84297;SDS011;74466;51.188;3.242;2024-02-21T00:51:22;12.05;;;3.95;;
84297;SDS011;74466;51.188;3.242;2024-02-21T00:53:48;9.32;;;4.25;;
84297;SDS011;74466;51.188;3.242;2024-02-21T00:56:14;11.38;;;4.20;;
84297;SDS011;74466;51.188;3.242;2024-02-21T00:58:39;9.95;;;4.10;;
84297;SDS011;74466;51.188;3.242;2024-02-21T01:01:05;9.52;;;4.00;;
84297;SDS011;74466;51.188;3.242;2024-02-21T01:03:31;9.20;;;3.90;;
84297;SDS011;74466;51.188;3.242;2024-02-21T01:05:57;9.90;;;4.30;;
84297;SDS011;74466;51.188;3.242;2024-02-21T01:08:22;9.73;;;4.15;;
84297;SDS011;74466;51.188;3.242;2024-02-21T01:10:48;11.68;;;4.03;;
84297;SDS011;74466;51.188;3.242;2024-02-21T01:13:14;9.13;;;3.80;;
84297;SDS011;74466;51.188;3.242;2024-02-21T01:15:39;8.50;;;4.28;;
84297;SDS011;74466;51.188;3.242;2024-02-21T01:18:05;10.98;;;4.20;;
84297;SDS011;74466;51.188;3.242;2024-02-21T01:20:31;11.10;;;4.40;;
84297;SDS011;74466;51.188;3.242;2024-02-21T01:22:57;12.35;;;4.07;;
84297;SDS011;74466;51.188;3.242;2024-02-21T01:25:23;9.98;;;3.72;;
84297;SDS011;74466;51.188;3.242;2024-02-21T01:27:49;11.50;;;4.05;;
84297;SDS011;74466;51.188;3.242;2024-02-21T01:30:14;10.07;;;4.38;;
84297;SDS011;74466;51.188;3.242;2024-02-21T01:32:40;12.20;;;4.00;;
84297;SDS011;74466;51.188;3.242;2024-02-21T01:35:06;10.27;;;4.43;;
84297;SDS011;74466;51.188;3.242;2024-02-21T01:37:33;8.15;;;3.95;;
84297;SDS011;74466;51.188;3.242;2024-02-21T01:39:59;9.90;;;4.05;;
84297;SDS011;74466;51.188;3.242;2024-02-21T01:42:25;9.60;;;4.57;;
84297;SDS011;74466;51.188;3.242;2024-02-21T01:44:50;13.05;;;4.40;;
84297;SDS011;74466;51.188;3.242;2024-02-21T01:47:16;10.82;;;4.50;;
84297;SDS011;74466;51.188;3.242;2024-02-21T01:49:42;11.15;;;4.43;;
84297;SDS011;74466;51.188;3.242;2024-02-21T01:52:08;11.05;;;4.57;;
84297;SDS011;74466;51.188;3.242;2024-02-21T01:54:36;10.25;;;4.60;;
84297;SDS011;74466;51.188;3.242;2024-02-21T01:57:01;10.65;;;4.57;;
84297;SDS011;74466;51.188;3.242;2024-02-21T01:59:28;10.13;;;4.78;;
84297;SDS011;74466;51.188;3.242;2024-02-21T02:01:53;13.02;;;4.88;;
84297;SDS011;74466;51.188;3.242;2024-02-21T02:04:22;10.43;;;4.57;;
84297;SDS011;74466;51.188;3.242;2024-02-21T02:06:50;10.93;;;4.90;;
84297;SDS011;74466;51.188;3.242;2024-02-21T02:09:16;12.25;;;4.72;;
84297;SDS011;74466;51.188;3.242;2024-02-21T02:11:42;13.38;;;4.85;;
84297;SDS011;74466;51.188;3.242;2024-02-21T02:14:08;14.18;;;5.47;;
84297;SDS011;74466;51.188;3.242;2024-02-21T02:16:35;11.80;;;4.90;;
84297;SDS011;74466;51.188;3.242;2024-02-21T02:19:01;13.70;;;5.72;;
84297;SDS011;74466;51.188;3.242;2024-02-21T02:23:54;12.52;;;5.57;;
84297;SDS011;74466;51.188;3.242;2024-02-21T02:26:20;13.35;;;5.57;;
84297;SDS011;74466;51.188;3.242;2024-02-21T02:28:46;12.38;;;5.75;;
84297;SDS011;74466;51.188;3.242;2024-02-21T02:31:12;12.45;;;5.68;;
84297;SDS011;74466;51.188;3.242;2024-02-21T02:33:38;16.83;;;5.63;;
84297;SDS011;74466;51.188;3.242;2024-02-21T02:36:03;14.95;;;6.13;;
84297;SDS011;74466;51.188;3.242;2024-02-21T02:38:29;13.23;;;5.90;;
84297;SDS011;74466;51.188;3.242;2024-02-21T02:40:55;15.70;;;6.30;;
84297;SDS011;74466;51.188;3.242;2024-02-21T02:43:21;15.10;;;6.32;;
84297;SDS011;74466;51.188;3.242;2024-02-21T02:45:47;15.10;;;6.40;;
84297;SDS011;74466;51.188;3.242;2024-02-21T02:48:12;18.60;;;6.40;;
84297;SDS011;74466;51.188;3.242;2024-02-21T02:50:38;15.52;;;6.20;;
84297;SDS011;74466;51.188;3.242;2024-02-21T02:53:04;15.48;;;6.32;;
84297;SDS011;74466;51.188;3.242;2024-02-21T02:55:29;15.88;;;6.20;;
84297;SDS011;74466;51.188;3.242;2024-02-21T02:57:56;16.10;;;6.05;;
84297;SDS011;74466;51.188;3.242;2024-02-21T03:00:22;15.82;;;6.57;;
84297;SDS011;74466;51.188;3.242;2024-02-21T03:02:48;17.98;;;6.35;;
84297;SDS011;74466;51.188;3.242;2024-02-21T03:05:18;16.75;;;6.45;;
84297;SDS011;74466;51.188;3.242;2024-02-21T03:07:45;16.08;;;6.43;;
84297;SDS011;74466;51.188;3.242;2024-02-21T03:10:12;14.45;;;6.32;;
84297;SDS011;74466;51.188;3.242;2024-02-21T03:12:38;14.05;;;7.00;;
84297;SDS011;74466;51.188;3.242;2024-02-21T03:15:04;15.75;;;7.03;;
84297;SDS011;74466;51.188;3.242;2024-02-21T03:17:30;15.75;;;6.97;;
84297;SDS011;74466;51.188;3.242;2024-02-21T03:19:57;13.50;;;6.40;;
84297;SDS011;74466;51.188;3.242;2024-02-21T03:22:25;15.63;;;6.97;;
84297;SDS011;74466;51.188;3.242;2024-02-21T03:24:51;17.60;;;6.85;;
84297;SDS011;74466;51.188;3.242;2024-02-21T03:27:16;17.92;;;7.28;;
84297;SDS011;74466;51.188;3.242;2024-02-21T03:29:42;17.88;;;7.20;;
84297;SDS011;74466;51.188;3.242;2024-02-21T03:32:08;16.05;;;6.97;;
84297;SDS011;74466;51.188;3.242;2024-02-21T03:34:34;17.60;;;7.65;;
84297;SDS011;74466;51.188;3.242;2024-02-21T03:37:01;17.63;;;7.45;;
84297;SDS011;74466;51.188;3.242;2024-02-21T03:39:26;17.80;;;7.18;;
84297;SDS011;74466;51.188;3.242;2024-02-21T03:41:52;16.90;;;7.40;;
84297;SDS011;74466;51.188;3.242;2024-02-21T03:44:18;22.00;;;7.70;;
84297;SDS011;74466;51.188;3.242;2024-02-21T03:46:44;21.75;;;7.68;;
84297;SDS011;74466;51.188;3.242;2024-02-21T03:49:10;20.15;;;7.65;;
84297;SDS011;74466;51.188;3.242;2024-02-21T03:51:36;19.17;;;7.63;;
84297;SDS011;74466;51.188;3.242;2024-02-21T03:54:02;18.40;;;8.52;;
84297;SDS011;74466;51.188;3.242;2024-02-21T03:56:28;21.27;;;7.82;;
84297;SDS011;74466;51.188;3.242;2024-02-21T03:58:53;23.20;;;8.32;;
84297;SDS011;74466;51.188;3.242;2024-02-21T04:01:19;20.83;;;8.13;;
84297;SDS011;74466;51.188;3.242;2024-02-21T04:03:45;18.55;;;7.53;;
84297;SDS011;74466;51.188;3.242;2024-02-21T04:06:11;21.52;;;8.10;;
84297;SDS011;74466;51.188;3.242;2024-02-21T04:08:37;20.85;;;7.70;;
84297;SDS011;74466;51.188;3.242;2024-02-21T04:11:04;24.45;;;8.15;;
84297;SDS011;74466;51.188;3.242;2024-02-21T04:13:29;20.27;;;7.63;;
84297;SDS011;74466;51.188;3.242;2024-02-21T04:15:56;22.42;;;8.20;;
84297;SDS011;74466;51.188;3.242;2024-02-21T04:18:22;20.80;;;7.65;;
84297;SDS011;74466;51.188;3.242;2024-02-21T04:20:47;19.35;;;7.95;;
84297;SDS011;74466;51.188;3.242;2024-02-21T04:23:13;23.35;;;8.40;;
84297;SDS011;74466;51.188;3.242;2024-02-21T04:25:39;23.88;;;8.65;;
84297;SDS011;74466;51.188;3.242;2024-02-21T04:28:05;22.02;;;8.25;;
84297;SDS011;74466;51.188;3.242;2024-02-21T04:30:30;23.58;;;8.63;;
84297;SDS011;74466;51.188;3.242;2024-02-21T04:32:56;23.02;;;8.45;;
84297;SDS011;74466;51.188;3.242;2024-02-21T04:35:22;20.48;;;8.30;;
84297;SDS011;74466;51.188;3.242;2024-02-21T04:37:48;21.98;;;8.63;;
84297;SDS011;74466;51.188;3.242;2024-02-21T04:40:14;23.15;;;8.93;;
84297;SDS011;74466;51.188;3.242;2024-02-21T04:42:41;21.90;;;8.82;;
84297;SDS011;74466;51.188;3.242;2024-02-21T04:45:08;22.95;;;8.63;;
84297;SDS011;74466;51.188;3.242;2024-02-21T04:47:34;22.50;;;8.38;;
84297;SDS011;74466;51.188;3.242;2024-02-21T04:50:00;25.27;;;8.63;;
84297;SDS011;74466;51.188;3.242;2024-02-21T04:52:26;24.85;;;8.70;;
84297;SDS011;74466;51.188;3.242;2024-02-21T04:54:51;21.48;;;8.95;;
84297;SDS011;74466;51.188;3.242;2024-02-21T04:57:18;22.27;;;8.40;;
84297;SDS011;74466;51.188;3.242;2024-02-21T04:59:44;21.92;;;8.88;;
84297;SDS011;74466;51.188;3.242;2024-02-21T05:02:10;21.25;;;8.73;;
84297;SDS011;74466;51.188;3.242;2024-02-21T05:04:36;21.10;;;8.68;;
84297;SDS011;74466;51.188;3.242;2024-02-21T05:07:03;23.20;;;8.95;;
84297;SDS011;74466;51.188;3.242;2024-02-21T05:09:29;21.55;;;8.80;;
84297;SDS011;74466;51.188;3.242;2024-02-21T05:11:55;23.58;;;9.27;;
84297;SDS011;74466;51.188;3.242;2024-02-21T05:14:20;25.50;;;9.55;;
84297;SDS011;74466;51.188;3.242;2024-02-21T05:16:46;24.38;;;9.32;;
84297;SDS011;74466;51.188;3.242;2024-02-21T05:19:12;25.40;;;9.45;;
84297;SDS011;74466;51.188;3.242;2024-02-21T05:21:38;22.58;;;9.60;;
84297;SDS011;74466;51.188;3.242;2024-02-21T05:24:04;21.67;;;9.27;;
84297;SDS011;74466;51.188;3.242;2024-02-21T05:26:30;25.33;;;9.50;;
84297;SDS011;74466;51.188;3.242;2024-02-21T05:28:56;22.80;;;9.80;;
84297;SDS011;74466;51.188;3.242;2024-02-21T05:31:24;25.92;;;10.32;;
84297;SDS011;74466;51.188;3.242;2024-02-21T05:33:50;23.92;;;10.25;;
84297;SDS011;74466;51.188;3.242;2024-02-21T05:36:17;26.05;;;9.88;;
84297;SDS011;74466;51.188;3.242;2024-02-21T05:38:42;23.90;;;9.95;;
84297;SDS011;74466;51.188;3.242;2024-02-21T05:41:08;22.35;;;9.85;;
84297;SDS011;74466;51.188;3.242;2024-02-21T05:43:34;24.40;;;9.55;;
84297;SDS011;74466;51.188;3.242;2024-02-21T05:45:59;21.90;;;10.20;;
84297;SDS011;74466;51.188;3.242;2024-02-21T05:48:25;20.52;;;8.95;;
84297;SDS011;74466;51.188;3.242;2024-02-21T05:50:51;21.85;;;9.38;;
84297;SDS011;74466;51.188;3.242;2024-02-21T05:53:16;25.83;;;9.40;;
84297;SDS011;74466;51.188;3.242;2024-02-21T05:55:42;20.33;;;8.60;;
84297;SDS011;74466;51.188;3.242;2024-02-21T05:58:08;19.73;;;8.68;;
84297;SDS011;74466;51.188;3.242;2024-02-21T06:00:39;21.52;;;9.40;;
84297;SDS011;74466;51.188;3.242;2024-02-21T06:03:04;24.88;;;9.45;;
84297;SDS011;74466;51.188;3.242;2024-02-21T06:05:31;19.42;;;8.52;;
84297;SDS011;74466;51.188;3.242;2024-02-21T06:07:57;23.65;;;9.40;;
84297;SDS011;74466;51.188;3.242;2024-02-21T06:10:22;23.67;;;9.60;;
84297;SDS011;74466;51.188;3.242;2024-02-21T06:12:48;18.35;;;8.38;;
84297;SDS011;74466;51.188;3.242;2024-02-21T06:15:14;22.88;;;9.27;;
84297;SDS011;74466;51.188;3.242;2024-02-21T06:17:40;23.35;;;9.55;;
84297;SDS011;74466;51.188;3.242;2024-02-21T06:20:06;20.52;;;9.35;;
84297;SDS011;74466;51.188;3.242;2024-02-21T06:22:32;18.75;;;8.45;;
84297;SDS011;74466;51.188;3.242;2024-02-21T06:24:58;23.05;;;8.88;;
84297;SDS011;74466;51.188;3.242;2024-02-21T06:27:24;24.13;;;9.13;;
84297;SDS011;74466;51.188;3.242;2024-02-21T06:29:50;19.40;;;8.90;;
84297;SDS011;74466;51.188;3.242;2024-02-21T06:32:15;21.00;;;8.32;;
84297;SDS011;74466;51.188;3.242;2024-02-21T06:34:41;19.92;;;9.30;;
84297;SDS011;74466;51.188;3.242;2024-02-21T06:37:06;23.70;;;8.82;;
84297;SDS011;74466;51.188;3.242;2024-02-21T06:39:32;20.30;;;8.60;;
84297;SDS011;74466;51.188;3.242;2024-02-21T06:41:58;17.88;;;7.88;;
84297;SDS011;74466;51.188;3.242;2024-02-21T06:44:24;19.98;;;8.70;;
84297;SDS011;74466;51.188;3.242;2024-02-21T06:46:50;15.98;;;7.85;;
84297;SDS011;74466;51.188;3.242;2024-02-21T06:49:16;17.17;;;7.80;;
84297;SDS011;74466;51.188;3.242;2024-02-21T06:51:42;17.73;;;8.07;;
84297;SDS011;74466;51.188;3.242;2024-02-21T06:54:08;16.55;;;7.63;;
84297;SDS011;74466;51.188;3.242;2024-02-21T06:56:38;19.70;;;8.32;;
84297;SDS011;74466;51.188;3.242;2024-02-21T06:59:05;18.50;;;8.27;;
84297;SDS011;74466;51.188;3.242;2024-02-21T07:01:31;18.83;;;7.90;;
84297;SDS011;74466;51.188;3.242;2024-02-21T07:03:57;17.77;;;7.90;;
84297;SDS011;74466;51.188;3.242;2024-02-21T07:06:22;18.27;;;8.32;;
84297;SDS011;74466;51.188;3.242;2024-02-21T07:08:48;16.95;;;8.07;;
84297;SDS011;74466;51.188;3.242;2024-02-21T07:11:14;20.08;;;7.70;;
84297;SDS011;74466;51.188;3.242;2024-02-21T07:13:40;19.45;;;7.90;;
84297;SDS011;74466;51.188;3.242;2024-02-21T07:16:06;17.13;;;7.60;;
84297;SDS011;74466;51.188;3.242;2024-02-21T07:18:32;17.60;;;8.10;;
84297;SDS011;74466;51.188;3.242;2024-02-21T07:20:58;17.98;;;8.00;;
84297;SDS011;74466;51.188;3.242;2024-02-21T07:23:24;16.52;;;7.55;;
84297;SDS011;74466;51.188;3.242;2024-02-21T07:25:50;19.48;;;7.88;;
84297;SDS011;74466;51.188;3.242;2024-02-21T07:28:16;16.90;;;8.07;;
84297;SDS011;74466;51.188;3.242;2024-02-21T07:30:42;18.50;;;7.53;;
84297;SDS011;74466;51.188;3.242;2024-02-21T07:33:08;25.65;;;11.27;;
84297;SDS011;74466;51.188;3.242;2024-02-21T07:35:34;24.05;;;9.70;;
84297;SDS011;74466;51.188;3.242;2024-02-21T07:38:02;24.08;;;9.32;;
84297;SDS011;74466;51.188;3.242;2024-02-21T07:40:29;18.45;;;8.00;;
84297;SDS011;74466;51.188;3.242;2024-02-21T07:42:55;17.13;;;7.57;;
84297;SDS011;74466;51.188;3.242;2024-02-21T07:45:21;19.10;;;7.57;;
84297;SDS011;74466;51.188;3.242;2024-02-21T07:47:49;16.60;;;7.60;;
84297;SDS011;74466;51.188;3.242;2024-02-21T07:50:15;21.63;;;7.82;;
84297;SDS011;74466;51.188;3.242;2024-02-21T07:52:41;17.00;;;8.07;;
84297;SDS011;74466;51.188;3.242;2024-02-21T07:55:07;18.02;;;7.47;;
84297;SDS011;74466;51.188;3.242;2024-02-21T07:57:33;16.45;;;7.78;;
84297;SDS011;74466;51.188;3.242;2024-02-21T07:59:58;16.60;;;7.85;;
84297;SDS011;74466;51.188;3.242;2024-02-21T08:02:24;20.13;;;7.80;;
84297;SDS011;74466;51.188;3.242;2024-02-21T08:04:50;17.00;;;7.68;;
84297;SDS011;74466;51.188;3.242;2024-02-21T08:07:16;18.77;;;7.20;;
84297;SDS011;74466;51.188;3.242;2024-02-21T08:09:42;16.95;;;7.68;;
84297;SDS011;74466;51.188;3.242;2024-02-21T08:12:07;17.73;;;7.63;;
84297;SDS011;74466;51.188;3.242;2024-02-21T08:14:33;15.95;;;7.32;;
84297;SDS011;74466;51.188;3.242;2024-02-21T08:17:00;17.58;;;6.82;;
84297;SDS011;74466;51.188;3.242;2024-02-21T08:19:25;15.93;;;7.07;;
84297;SDS011;74466;51.188;3.242;2024-02-21T08:21:51;14.80;;;7.05;;
84297;SDS011;74466;51.188;3.242;2024-02-21T08:24:17;15.55;;;7.60;;
84297;SDS011;74466;51.188;3.242;2024-02-21T08:26:43;16.30;;;7.18;;
84297;SDS011;74466;51.188;3.242;2024-02-21T08:29:10;16.65;;;7.63;;
84297;SDS011;74466;51.188;3.242;2024-02-21T08:31:36;18.17;;;7.95;;
84297;SDS011;74466;51.188;3.242;2024-02-21T08:34:02;14.80;;;7.85;;
84297;SDS011;74466;51.188;3.242;2024-02-21T08:36:31;17.80;;;8.00;;
84297;SDS011;74466;51.188;3.242;2024-02-21T08:38:58;18.08;;;7.82;;
84297;SDS011;74466;51.188;3.242;2024-02-21T08:41:24;17.45;;;8.05;;
84297;SDS011;74466;51.188;3.242;2024-02-21T08:43:53;17.42;;;7.88;;
84297;SDS011;74466;51.188;3.242;2024-02-21T08:46:19;18.08;;;7.90;;
84297;SDS011;74466;51.188;3.242;2024-02-21T08:48:51;19.13;;;8.05;;
84297;SDS011;74466;51.188;3.242;2024-02-21T08:51:18;18.77;;;8.05;;
84297;SDS011;74466;51.188;3.242;2024-02-21T08:53:44;19.27;;;7.80;;
84297;SDS011;74466;51.188;3.242;2024-02-21T08:56:10;20.15;;;8.25;;
84297;SDS011;74466;51.188;3.242;2024-02-21T08:58:36;19.45;;;7.88;;
84297;SDS011;74466;51.188;3.242;2024-02-21T09:01:03;17.60;;;8.40;;
84297;SDS011;74466;51.188;3.242;2024-02-21T09:03:35;19.08;;;8.38;;
84297;SDS011;74466;51.188;3.242;2024-02-21T09:06:01;20.77;;;8.80;;
84297;SDS011;74466;51.188;3.242;2024-02-21T09:08:27;23.52;;;8.88;;
84297;SDS011;74466;51.188;3.242;2024-02-21T09:10:52;18.90;;;9.02;;
84297;SDS011;74466;51.188;3.242;2024-02-21T09:13:18;17.17;;;8.65;;
84297;SDS011;74466;51.188;3.242;2024-02-21T09:15:44;21.17;;;9.13;;
84297;SDS011;74466;51.188;3.242;2024-02-21T09:18:10;19.35;;;9.25;;
84297;SDS011;74466;51.188;3.242;2024-02-21T09:20:36;19.10;;;9.40;;
84297;SDS011;74466;51.188;3.242;2024-02-21T09:23:01;17.80;;;9.35;;
84297;SDS011;74466;51.188;3.242;2024-02-21T09:25:27;18.05;;;9.27;;
84297;SDS011;74466;51.188;3.242;2024-02-21T09:27:54;21.75;;;10.13;;
84297;SDS011;74466;51.188;3.242;2024-02-21T09:30:20;19.58;;;10.27;;
84297;SDS011;74466;51.188;3.242;2024-02-21T09:32:45;23.45;;;10.27;;
84297;SDS011;74466;51.188;3.242;2024-02-21T09:35:12;22.73;;;10.43;;
84297;SDS011;74466;51.188;3.242;2024-02-21T09:37:38;26.58;;;11.07;;
84297;SDS011;74466;51.188;3.242;2024-02-21T09:40:04;24.83;;;11.02;;
84297;SDS011;74466;51.188;3.242;2024-02-21T09:42:36;21.70;;;10.23;;
84297;SDS011;74466;51.188;3.242;2024-02-21T09:45:07;19.75;;;10.50;;
84297;SDS011;74466;51.188;3.242;2024-02-21T09:47:40;22.65;;;9.90;;
84297;SDS011;74466;51.188;3.242;2024-02-21T09:50:11;20.88;;;10.30;;
84297;SDS011;74466;51.188;3.242;2024-02-21T09:52:39;21.70;;;10.27;;
84297;SDS011;74466;51.188;3.242;2024-02-21T09:55:06;19.73;;;10.05;;
84297;SDS011;74466;51.188;3.242;2024-02-21T09:57:35;20.15;;;9.63;;
84297;SDS011;74466;51.188;3.242;2024-02-21T10:00:02;21.73;;;9.80;;
84297;SDS011;74466;51.188;3.242;2024-02-21T10:02:32;22.67;;;10.75;;
84297;SDS011;74466;51.188;3.242;2024-02-21T10:04:58;20.02;;;9.90;;
84297;SDS011;74466;51.188;3.242;2024-02-21T10:07:24;17.20;;;9.68;;
84297;SDS011;74466;51.188;3.242;2024-02-21T10:10:00;21.05;;;9.70;;
84297;SDS011;74466;51.188;3.242;2024-02-21T10:12:26;20.55;;;9.52;;
84297;SDS011;74466;51.188;3.242;2024-02-21T10:15:05;18.83;;;9.02;;
84297;SDS011;74466;51.188;3.242;2024-02-21T10:17:32;21.35;;;10.05;;
84297;SDS011;74466;51.188;3.242;2024-02-21T10:20:10;18.58;;;8.95;;
84297;SDS011;74466;51.188;3.242;2024-02-21T10:22:37;17.05;;;9.02;;
84297;SDS011;74466;51.188;3.242;2024-02-21T10:25:11;16.00;;;8.50;;
84297;SDS011;74466;51.188;3.242;2024-02-21T10:27:38;18.83;;;9.10;;
84297;SDS011;74466;51.188;3.242;2024-02-21T10:30:05;15.25;;;8.20;;
84297;SDS011;74466;51.188;3.242;2024-02-21T10:32:59;19.60;;;9.75;;
84297;SDS011;74466;51.188;3.242;2024-02-21T10:35:33;18.02;;;8.68;;
84297;SDS011;74466;51.188;3.242;2024-02-21T10:37:59;16.30;;;8.43;;
84297;SDS011;74466;51.188;3.242;2024-02-21T10:40:25;16.58;;;8.60;;
84297;SDS011;74466;51.188;3.242;2024-02-21T10:43:01;18.40;;;8.43;;
84297;SDS011;74466;51.188;3.242;2024-02-21T10:45:30;17.77;;;8.05;;
84297;SDS011;74466;51.188;3.242;2024-02-21T10:50:47;19.40;;;8.43;;
84297;SDS011;74466;51.188;3.242;2024-02-21T10:56:15;17.38;;;8.52;;
84297;SDS011;74466;51.188;3.242;2024-02-21T10:59:03;18.38;;;8.77;;
84297;SDS011;74466;51.188;3.242;2024-02-21T11:01:30;19.92;;;9.23;;
84297;SDS011;74466;51.188;3.242;2024-02-21T11:04:07;16.42;;;7.68;;
84297;SDS011;74466;51.188;3.242;2024-02-21T11:06:36;19.67;;;9.48;;
84297;SDS011;74466;51.188;3.242;2024-02-21T11:09:04;22.02;;;8.80;;
84297;SDS011;74466;51.188;3.242;2024-02-21T11:11:34;18.00;;;8.38;;
84297;SDS011;74466;51.188;3.242;2024-02-21T11:16:41;18.30;;;8.40;;
84297;SDS011;74466;51.188;3.242;2024-02-21T11:19:08;23.88;;;8.40;;
84297;SDS011;74466;51.188;3.242;2024-02-21T11:21:53;15.13;;;8.30;;
84297;SDS011;74466;51.188;3.242;2024-02-21T11:24:25;17.05;;;7.93;;
84297;SDS011;74466;51.188;3.242;2024-02-21T11:27:07;17.98;;;8.32;;
84297;SDS011;74466;51.188;3.242;2024-02-21T11:29:49;16.23;;;8.38;;
84297;SDS011;74466;51.188;3.242;2024-02-21T11:32:19;20.55;;;8.85;;
84297;SDS011;74466;51.188;3.242;2024-02-21T11:35:04;16.35;;;7.72;;
84297;SDS011;74466;51.188;3.242;2024-02-21T11:37:34;16.27;;;8.60;;
84297;SDS011;74466;51.188;3.242;2024-02-21T11:40:04;21.58;;;8.80;;
84297;SDS011;74466;51.188;3.242;2024-02-21T11:42:32;20.48;;;10.40;;
84297;SDS011;74466;51.188;3.242;2024-02-21T11:44:59;17.33;;;9.43;;
84297;SDS011;74466;51.188;3.242;2024-02-21T11:47:25;18.58;;;9.55;;
84297;SDS011;74466;51.188;3.242;2024-02-21T11:49:53;20.95;;;9.82;;
84297;SDS011;74466;51.188;3.242;2024-02-21T11:52:21;19.25;;;9.57;;
84297;SDS011;74466;51.188;3.242;2024-02-21T11:54:50;21.15;;;9.93;;
84297;SDS011;74466;51.188;3.242;2024-02-21T11:57:16;18.63;;;10.00;;
84297;SDS011;74466;51.188;3.242;2024-02-21T11:59:44;21.20;;;10.02;;
84297;SDS011;74466;51.188;3.242;2024-02-21T12:02:11;21.05;;;10.25;;
84297;SDS011;74466;51.188;3.242;2024-02-21T12:04:38;19.45;;;9.38;;
84297;SDS011;74466;51.188;3.242;2024-02-21T12:07:04;26.70;;;10.43;;
84297;SDS011;74466;51.188;3.242;2024-02-21T12:09:30;18.02;;;10.20;;
84297;SDS011;74466;51.188;3.242;2024-02-21T12:12:03;19.33;;;9.75;;
84297;SDS011;74466;51.188;3.242;2024-02-21T12:14:31;19.42;;;9.80;;
84297;SDS011;74466;51.188;3.242;2024-02-21T12:16:58;19.80;;;9.75;;
84297;SDS011;74466;51.188;3.242;2024-02-21T12:19:25;16.90;;;9.30;;
84297;SDS011;74466;51.188;3.242;2024-02-21T12:21:51;17.48;;;8.88;;
84297;SDS011;74466;51.188;3.242;2024-02-21T12:24:20;18.13;;;8.50;;
84297;SDS011;74466;51.188;3.242;2024-02-21T12:26:48;15.18;;;8.52;;
84297;SDS011;74466;51.188;3.242;2024-02-21T12:29:14;15.43;;;7.97;;
84297;SDS011;74466;51.188;3.242;2024-02-21T12:31:40;15.23;;;8.55;;
84297;SDS011;74466;51.188;3.242;2024-02-21T12:34:06;16.33;;;8.70;;
84297;SDS011;74466;51.188;3.242;2024-02-21T12:36:32;14.73;;;8.00;;
84297;SDS011;74466;51.188;3.242;2024-02-21T12:38:58;14.98;;;7.90;;
84297;SDS011;74466;51.188;3.242;2024-02-21T12:41:26;14.85;;;7.47;;
84297;SDS011;74466;51.188;3.242;2024-02-21T12:43:52;15.60;;;7.28;;
84297;SDS011;74466;51.188;3.242;2024-02-21T12:46:18;15.20;;;7.65;;
84297;SDS011;74466;51.188;3.242;2024-02-21T12:48:44;13.43;;;7.47;;
84297;SDS011;74466;51.188;3.242;2024-02-21T12:51:10;14.73;;;8.20;;
84297;SDS011;74466;51.188;3.242;2024-02-21T12:53:36;14.60;;;7.80;;
84297;SDS011;74466;51.188;3.242;2024-02-21T12:56:02;13.77;;;7.70;;
84297;SDS011;74466;51.188;3.242;2024-02-21T12:58:30;12.68;;;7.38;;
84297;SDS011;74466;51.188;3.242;2024-02-21T13:00:56;16.95;;;7.30;;
84297;SDS011;74466;51.188;3.242;2024-02-21T13:03:22;13.50;;;7.35;;
84297;SDS011;74466;51.188;3.242;2024-02-21T13:05:48;14.35;;;7.22;;
84297;SDS011;74466;51.188;3.242;2024-02-21T13:08:13;13.43;;;7.03;;
84297;SDS011;74466;51.188;3.242;2024-02-21T13:10:39;13.63;;;7.30;;
84297;SDS011;74466;51.188;3.242;2024-02-21T13:13:05;13.05;;;7.60;;
84297;SDS011;74466;51.188;3.242;2024-02-21T13:15:31;15.40;;;7.70;;
84297;SDS011;74466;51.188;3.242;2024-02-21T13:17:56;15.52;;;7.90;;
84297;SDS011;74466;51.188;3.242;2024-02-21T13:20:25;14.68;;;7.10;;
84297;SDS011;74466;51.188;3.242;2024-02-21T13:22:52;14.68;;;7.40;;
84297;SDS011;74466;51.188;3.242;2024-02-21T13:25:18;14.13;;;6.93;;
84297;SDS011;74466;51.188;3.242;2024-02-21T13:27:46;13.70;;;7.00;;
84297;SDS011;74466;51.188;3.242;2024-02-21T13:30:13;14.40;;;6.93;;
84297;SDS011;74466;51.188;3.242;2024-02-21T13:32:41;20.77;;;7.00;;
84297;SDS011;74466;51.188;3.242;2024-02-21T13:35:07;11.90;;;6.80;;
84297;SDS011;74466;51.188;3.242;2024-02-21T13:37:34;12.73;;;6.88;;
84297;SDS011;74466;51.188;3.242;2024-02-21T13:40:00;15.13;;;6.72;;
84297;SDS011;74466;51.188;3.242;2024-02-21T13:42:25;12.80;;;6.57;;
84297;SDS011;74466;51.188;3.242;2024-02-21T13:44:53;13.63;;;7.00;;
84297;SDS011;74466;51.188;3.242;2024-02-21T13:47:18;13.45;;;7.38;;
84297;SDS011;74466;51.188;3.242;2024-02-21T13:49:46;14.40;;;7.15;;
84297;SDS011;74466;51.188;3.242;2024-02-21T13:52:12;14.07;;;7.53;;
84297;SDS011;74466;51.188;3.242;2024-02-21T13:54:38;12.52;;;7.20;;
84297;SDS011;74466;51.188;3.242;2024-02-21T13:57:04;14.23;;;7.68;;
84297;SDS011;74466;51.188;3.242;2024-02-21T13:59:29;17.17;;;7.95;;
84297;SDS011;74466;51.188;3.242;2024-02-21T14:01:55;18.13;;;8.13;;
84297;SDS011;74466;51.188;3.242;2024-02-21T14:04:21;14.35;;;8.00;;
84297;SDS011;74466;51.188;3.242;2024-02-21T14:06:47;15.90;;;8.32;;
84297;SDS011;74466;51.188;3.242;2024-02-21T14:09:13;13.98;;;7.88;;
84297;SDS011;74466;51.188;3.242;2024-02-21T14:11:39;17.10;;;7.95;;
84297;SDS011;74466;51.188;3.242;2024-02-21T14:14:06;17.90;;;8.20;;
84297;SDS011;74466;51.188;3.242;2024-02-21T14:16:32;13.65;;;7.70;;
84297;SDS011;74466;51.188;3.242;2024-02-21T14:18:58;15.38;;;7.82;;
84297;SDS011;74466;51.188;3.242;2024-02-21T14:21:24;16.08;;;7.95;;
84297;SDS011;74466;51.188;3.242;2024-02-21T14:23:50;16.33;;;7.90;;
84297;SDS011;74466;51.188;3.242;2024-02-21T14:26:17;13.50;;;7.30;;
84297;SDS011;74466;51.188;3.242;2024-02-21T14:28:43;14.38;;;7.65;;
84297;SDS011;74466;51.188;3.242;2024-02-21T14:31:10;15.32;;;7.68;;
84297;SDS011;74466;51.188;3.242;2024-02-21T14:33:36;13.00;;;7.03;;
84297;SDS011;74466;51.188;3.242;2024-02-21T14:36:02;13.25;;;7.35;;
84297;SDS011;74466;51.188;3.242;2024-02-21T14:38:28;15.77;;;8.15;;
84297;SDS011;74466;51.188;3.242;2024-02-21T14:40:54;14.13;;;8.10;;